Flight Track Log - Related Links

Times and Time Zones

All times are in EDT time to prevent confusion due to time zone crossing. See the ADR704 flight status page for this flight to view local times or setup timezone preferences in your user account.

Time Position Orientation Groundspeed Altitude Reporting Facility
EDT Latitude Longitude Course Direction KTS MPH feet Rate Location/Type
Sat 08:00:00 AM 45.1194 15.7685 140° Southeast  Level Estimated
Sat 08:01:00 AM 45.0183 15.8852 141° Southeast  Level Estimated
Sat 08:02:00 AM 44.9171 16.0014 141° Southeast  Level Estimated
Sat 08:03:00 AM 44.8157 16.1172 141° Southeast  Level Estimated
Sat 08:04:00 AM 44.7143 16.2326 141° Southeast  Level Estimated
Sat 08:05:00 AM 44.6127 16.3477 141° Southeast  Level Estimated
Sat 08:06:00 AM 44.5110 16.4623 141° Southeast  Level Estimated
Sat 08:07:00 AM 44.4092 16.5765 141° Southeast  Level Estimated
Sat 08:08:00 AM 44.3072 16.6903 141° Southeast  Level Estimated
Sat 08:09:00 AM 44.2052 16.8037 141° Southeast  Level Estimated
Sat 08:10:00 AM 44.1030 16.9167 142° Southeast  Level Estimated
Sat 08:11:00 AM 44.0008 17.0294 142° Southeast  Level Estimated
Sat 08:12:00 AM 43.8984 17.1416 142° Southeast  Level Estimated
Sat 08:13:00 AM 43.7959 17.2535 142° Southeast  Level Estimated
Sat 08:14:00 AM 43.6933 17.3650 142° Southeast  Level Estimated
Sat 08:15:00 AM 43.5906 17.4760 142° Southeast  Level Estimated
Sat 08:16:00 AM 43.4878 17.5868 142° Southeast  Level Estimated
Sat 08:17:00 AM 43.3849 17.6971 142° Southeast  Level Estimated
Sat 08:18:00 AM 43.2819 17.8071 142° Southeast  Level Estimated
Sat 08:19:00 AM 43.1788 17.9167 142° Southeast  Level Estimated
Sat 08:20:00 AM 43.0755 18.0259 142° Southeast  Level Estimated
Sat 08:21:00 AM 42.9722 18.1348 142° Southeast  Level Estimated
Sat 08:22:00 AM 42.8688 18.2432 142° Southeast  Level Estimated
Sat 08:23:00 AM 42.7652 18.3514 143° Southeast  Level Estimated
Sat 08:24:00 AM 42.6616 18.4592 143° Southeast  Level Estimated
Sat 08:25:00 AM 42.5578 18.5666 143° Southeast  Level Estimated
Sat 08:26:00 AM 42.4540 18.6736 143° Southeast  Level Estimated
Sat 08:27:00 AM 42.3501 18.7803 143° Southeast  Level Estimated
Sat 08:28:00 AM 42.2460 18.8867 143° Southeast  Level Estimated
Sat 08:29:00 AM 42.1419 18.9926 143° Southeast  Level Estimated
Sat 08:30:00 AM 42.0377 19.0983 143° Southeast  Level Estimated
Sat 08:31:00 AM 41.9333 19.2036 143° Southeast  Level Estimated
Sat 08:32:00 AM 41.8289 19.3086 143° Southeast  Level Estimated
Sat 08:33:00 AM 41.7244 19.4132 143° Southeast  Level Estimated
Sat 08:34:00 AM 41.6198 19.5175 143° Southeast  Level Estimated
Sat 08:35:00 AM 41.5151 19.6214 143° Southeast  Level Estimated
Sat 08:36:00 AM 41.4147 19.7206 143° Southeast  Level Estimated
Sat 08:37:00 AM 41.4147 19.7206 North  Level Estimated
Sat 08:38:00 AM 41.4147 19.7206 North  Level Estimated
Sat 08:39:00 AM 41.4147 19.7206 North  Level Estimated
Sat 08:40:00 AM 41.4147 19.7206 North  Level Estimated
Sat 08:41:00 AM 41.4147 19.7206 North  Level Estimated
Sat 08:42:00 AM 41.4147 19.7206 North  Level Estimated
Sat 08:43:00 AM 41.4147 19.7206 North  Level Estimated
Sat 08:44:00 AM 41.4147 19.7206 North  Level Estimated
Sat 08:45:00 AM 41.4147 19.7206 North  Level Estimated
Sat 08:46:00 AM 41.4147 19.7206 North  Level Estimated
Sat 08:47:00 AM 41.4147 19.7206 North  Level Estimated
Sat 08:48:00 AM 41.4147 19.7206 North  Level Estimated

Login

Don't have an account? Register now (free) for customized features, flight alerts, and more!